Galliano, LA

10:33 AM CST on January 18, 2017 (GMT -0600)
Galliano

Weather History for KGAO - March, 2013

Change the Weather History Date:

Monday, March 18, 2013

  Actual Average (KHUM) Record (KHUM)
Temperature  
Mean Temperature 70 °F -  
Max Temperature 82 °F 73 °F 85 °F (1955)
Min Temperature 59 °F 53 °F 35 °F (1960)
Cooling Degree Days 5    
Growing Degree Days 20 (Base 50)    
Moisture  
Dew Point 66 °F    
Average Humidity 90    
Maximum Humidity 99    
Minimum Humidity 65    
Precipitation  
Precipitation 0.00 in - - ()
Sea Level Pressure  
Sea Level Pressure 29.85 in    
Wind  
Wind Speed 8 mph (South)    
Max Wind Speed 14 mph    
Max Gust Speed 22 mph    
Visibility 7 miles    
Events Fog    
Averages and records for this station are not official NWS values.
T = Trace of Precipitation, MM = Missing Value Source: NWS Daily Summary

Daily Weather History Graph

Daily Weather History Graph

Search for Another Location

Airport or City:

Trip Planner

Search our weather history database for the weather conditions in past years. The results will help you decide how hot, cold, wet, or windy it might be!

Date:

Astronomy

Mar. 18, 2013 Rise Set
Actual Time 7:06 AM CDT 7:11 PM CDT
Civil Twilight 6:43 AM CDT 7:35 PM CDT
Nautical Twilight 6:15 AM CDT 8:02 PM CDT
Astronomical Twilight 5:47 AM CDT 8:30 PM CDT
Moon 11:31 AM CDT 12:46 AM CDT
Length of Visible Light 12h 51m
Length of Day
12h 04m
Waxing Crescent, 41% of the Moon is Illuminated
Mar 18
Waxing Crescent
Mar 19
First Quarter
Mar 27
Full
Apr 2
Last Quarter
Apr 10
New

Hourly Weather History & Observations

Time (CDT) Temp. Heat Index Dew Point Humidity Pressure Visibility Wind Dir Wind Speed Gust Speed Precip Events Conditions
12:15 AM 68.2 °F - 66.2 °F 93% 29.86 in 10.0 mi SE 9.2 mph - N/A   Unknown
12:35 AM 68.9 °F - 66.7 °F 93% 29.86 in 10.0 mi SE 11.5 mph - N/A   Unknown
12:55 AM 69.8 °F - 68.0 °F 94% 29.85 in 7.0 mi SSE 13.8 mph 19.6 mph N/A   Unknown
1:15 AM 71.1 °F - 68.9 °F 93% 29.86 in 10.0 mi SSE 13.8 mph 18.4 mph N/A   Unknown
1:35 AM 71.6 °F - 69.1 °F 92% 29.86 in 10.0 mi SSE 13.8 mph 21.9 mph N/A   Unknown
1:55 AM 71.6 °F - 69.3 °F 92% 29.86 in 10.0 mi SSE 12.7 mph - N/A   Unknown
2:15 AM 71.6 °F - 69.1 °F 92% 29.86 in 7.0 mi SSE 10.4 mph 16.1 mph N/A   Unknown
2:35 AM 71.6 °F - 69.1 °F 92% 29.86 in 7.0 mi SSE 11.5 mph - N/A   Unknown
2:55 AM 71.1 °F - 68.9 °F 93% 29.86 in 7.0 mi SSE 8.1 mph - N/A   Unknown
3:15 AM 70.7 °F - 68.9 °F 94% 29.85 in 7.0 mi SSE 8.1 mph - N/A   Unknown
3:35 AM 70.2 °F - 68.5 °F 95% 29.85 in 7.0 mi SSE 6.9 mph - N/A   Unknown
3:55 AM 69.4 °F - 68.0 °F 95% 29.84 in 7.0 mi SSE 6.9 mph - N/A   Unknown
4:15 AM 68.2 °F - 66.7 °F 95% 29.84 in 7.0 mi SSE 6.9 mph - N/A   Unknown
4:35 AM 66.4 °F - 65.3 °F 96% 29.85 in 7.0 mi SSE 4.6 mph - N/A   Unknown
4:55 AM 64.4 °F - 63.3 °F 96% 29.85 in 5.0 mi SSE 4.6 mph - N/A   Mist
5:15 AM 63.3 °F - 62.6 °F 97% 29.85 in 5.0 mi SE 3.5 mph - N/A   Mist
5:35 AM 62.6 °F - 61.9 °F 97% 29.85 in 5.0 mi SE 4.6 mph - N/A   Mist
5:55 AM 62.6 °F - 61.7 °F 97% 29.85 in 5.0 mi SE 3.5 mph - N/A   Mist
6:15 AM 61.7 °F - 61.0 °F 97% 29.86 in 5.0 mi SSE 3.5 mph - N/A   Mist
6:35 AM 61.0 °F - 60.6 °F 99% 29.86 in 2.5 mi Calm Calm - N/A   Mist
6:55 AM 59.7 °F - 59.2 °F 98% 29.87 in 1.0 mi Calm Calm - N/A   Mist
7:15 AM 60.3 °F - 59.9 °F 99% 29.87 in 2.0 mi Calm Calm - N/A   Mist
7:35 AM 60.4 °F - 60.1 °F 99% 29.88 in 4.0 mi Calm Calm - N/A   Mist
7:55 AM 61.0 °F - 60.8 °F 99% 29.89 in 2.5 mi Calm Calm - N/A   Mist
8:15 AM 61.5 °F - 61.3 °F 99% 29.88 in 3.0 mi ESE 3.5 mph - N/A   Mist
8:35 AM 61.9 °F - 61.7 °F 99% 29.89 in 4.0 mi Calm Calm - N/A   Mist
8:55 AM 62.4 °F - 62.1 °F 99% 29.88 in 4.0 mi SE 4.6 mph - N/A   Mist
9:15 AM 63.3 °F - 62.6 °F 97% 29.87 in 5.0 mi SSE 9.2 mph - N/A   Mist
9:35 AM 65.1 °F - 63.7 °F 95% 29.88 in 5.0 mi South 9.2 mph - N/A   Mist
9:55 AM 66.6 °F - 64.9 °F 95% 29.90 in 4.0 mi SSW 8.1 mph - N/A   Mist
10:15 AM 66.6 °F - 65.3 °F 96% 29.90 in 3.0 mi SSW 6.9 mph - N/A   Mist
10:35 AM 66.6 °F - 65.3 °F 96% 29.91 in 3.0 mi SSW 6.9 mph - N/A   Mist
10:55 AM 66.6 °F - 65.3 °F 96% 29.91 in 2.0 mi SW 3.5 mph - N/A   Mist
11:15 AM 66.4 °F - 65.3 °F 96% 29.91 in 2.5 mi SW 4.6 mph - N/A   Mist
11:35 AM 67.3 °F - 65.8 °F 95% 29.91 in 7.0 mi SW 4.6 mph - N/A   Unknown
11:55 AM 72.0 °F - 68.7 °F 89% 29.91 in 10.0 mi SW 6.9 mph - N/A   Unknown
12:15 PM 75.7 °F - 70.9 °F 85% 29.91 in 10.0 mi SSW 6.9 mph - N/A   Unknown
12:35 PM 74.1 °F - 71.1 °F 90% 29.89 in 10.0 mi South 4.6 mph - N/A   Unknown
12:55 PM 75.7 °F - 71.4 °F 86% 29.88 in 10.0 mi South 6.9 mph - N/A   Unknown
1:15 PM 77.5 °F - 70.5 °F 79% 29.88 in 10.0 mi SSW 6.9 mph - N/A   Unknown
1:35 PM 79.0 °F - 70.2 °F 74% 29.87 in 10.0 mi SSW 9.2 mph - N/A   Unknown
1:55 PM 79.9 °F - 70.2 °F 72% 29.85 in 10.0 mi SSW 6.9 mph - N/A   Unknown
2:15 PM 80.6 °F 83.9 °F 69.8 °F 70% 29.84 in 10.0 mi SW 8.1 mph - N/A   Unknown
2:35 PM 81.5 °F 84.8 °F 69.1 °F 66% 29.82 in 10.0 mi South 9.2 mph - N/A   Unknown
2:55 PM 81.9 °F 85.2 °F 69.3 °F 65% 29.82 in 10.0 mi SSW 9.2 mph - N/A   Unknown
3:15 PM 81.5 °F 84.9 °F 69.4 °F 67% 29.81 in 10.0 mi South 9.2 mph - N/A   Unknown
3:35 PM 80.6 °F 83.6 °F 69.3 °F 68% 29.80 in 10.0 mi South 9.2 mph 16.1 mph N/A   Unknown
3:55 PM 80.8 °F 84.2 °F 70.2 °F 70% 29.81 in 10.0 mi SSW 10.4 mph - N/A   Unknown
4:15 PM 80.1 °F 82.9 °F 69.3 °F 69% 29.80 in 10.0 mi SSW 11.5 mph - N/A   Unknown
4:35 PM 80.2 °F 83.1 °F 68.9 °F 68% 29.80 in 10.0 mi SSW 9.2 mph - N/A   Unknown
4:55 PM 79.9 °F - 68.5 °F 68% 29.79 in 10.0 mi SSW 11.5 mph - N/A   Unknown
5:15 PM 78.8 °F - 69.1 °F 72% 29.79 in 10.0 mi SSW 10.4 mph - N/A   Unknown
5:35 PM 77.9 °F - 69.3 °F 75% 29.80 in 10.0 mi South 9.2 mph - N/A   Unknown
5:55 PM 77.0 °F - 68.9 °F 76% 29.79 in 10.0 mi South 11.5 mph - N/A   Unknown
6:15 PM 76.1 °F - 69.3 °F 79% 29.79 in 10.0 mi SSW 12.7 mph 16.1 mph N/A   Unknown
6:35 PM 74.8 °F - 69.3 °F 83% 29.79 in 10.0 mi South 10.4 mph - N/A   Unknown
6:55 PM 73.4 °F - 69.6 °F 88% 29.79 in 10.0 mi South 6.9 mph - N/A   Unknown
7:15 PM 72.1 °F - 69.8 °F 92% 29.80 in 7.0 mi South 5.8 mph - N/A   Unknown
7:35 PM 70.7 °F - 68.9 °F 94% 29.80 in 7.0 mi North - - N/A   Unknown
7:55 PM 69.4 °F - 67.8 °F 95% 29.80 in 7.0 mi South 4.6 mph - N/A   Unknown
8:15 PM 67.3 °F - 66.2 °F 96% 29.81 in 5.0 mi South 8.1 mph - N/A   Mist
8:35 PM 66.2 °F - 65.3 °F 97% 29.81 in 5.0 mi South 6.9 mph - N/A   Mist
8:55 PM 65.7 °F - 64.8 °F 97% 29.82 in 4.0 mi SSW 11.5 mph - N/A   Mist
9:15 PM 64.8 °F - 64.0 °F 98% 29.83 in 3.0 mi SSW 6.9 mph - N/A   Mist
9:35 PM 64.4 °F - 63.5 °F 97% 29.84 in 5.0 mi SSW 3.5 mph - N/A   Mist
9:55 PM 64.4 °F - 63.7 °F 98% 29.85 in 5.0 mi SW 3.5 mph - N/A   Mist
10:15 PM 64.4 °F - 63.5 °F 97% 29.86 in 5.0 mi SW 3.5 mph - N/A   Mist
10:55 PM 64.0 °F - 63.5 °F 98% 29.89 in 4.0 mi Calm Calm - N/A   Mist
11:15 PM 63.3 °F - 62.6 °F 97% 29.90 in 2.5 mi Calm Calm - N/A   Mist
11:35 PM 63.0 °F - 62.6 °F 99% 29.90 in 0.5 mi Calm Calm - N/A Fog Fog
11:55 PM 61.3 °F - 60.6 °F 97% 29.90 in 0.2 mi Calm Calm - N/A Fog Fog